createdAt,value
2018-05-07T00:01:38.066Z,15.98
2018-05-07T00:04:05.662Z,15.91
2018-05-07T00:06:33.253Z,15.81
2018-05-07T00:09:00.965Z,15.80
2018-05-07T00:11:28.553Z,15.77
2018-05-07T00:13:56.166Z,15.76
2018-05-07T00:16:23.756Z,15.71
2018-05-07T00:18:51.382Z,15.67
2018-05-07T00:21:18.972Z,15.64
2018-05-07T00:23:46.562Z,15.51
2018-05-07T00:26:16.905Z,15.56
2018-05-07T00:28:44.527Z,15.46
2018-05-07T00:31:12.152Z,15.51
2018-05-07T00:33:39.813Z,15.51
2018-05-07T00:36:07.422Z,15.46
2018-05-07T00:38:35.012Z,15.40
2018-05-07T00:41:02.598Z,15.42
2018-05-07T00:43:30.202Z,15.41
2018-05-07T00:45:57.818Z,15.42
2018-05-07T00:48:25.423Z,15.37
2018-05-07T00:50:53.015Z,15.27
2018-05-07T00:53:20.881Z,15.35
2018-05-07T00:55:48.472Z,15.27
2018-05-07T00:58:16.065Z,15.31
2018-05-07T01:00:43.727Z,15.22
2018-05-07T01:03:11.391Z,15.24
2018-05-07T01:05:39.004Z,15.21
2018-05-07T01:08:06.662Z,15.15
2018-05-07T01:10:34.619Z,15.17
2018-05-07T01:13:02.206Z,15.18
2018-05-07T01:15:29.810Z,15.17
2018-05-07T01:17:57.415Z,15.14
2018-05-07T01:20:25.002Z,15.13
2018-05-07T01:22:52.611Z,15.12
2018-05-07T01:25:20.259Z,15.13
2018-05-07T01:27:47.840Z,15.09
2018-05-07T01:30:15.528Z,15.09
2018-05-07T01:32:43.148Z,14.98
2018-05-07T01:35:10.742Z,14.98
2018-05-07T01:37:38.323Z,14.95
2018-05-07T01:40:05.966Z,14.93
2018-05-07T01:42:34.292Z,14.86
2018-05-07T01:45:02.107Z,14.85
2018-05-07T01:47:29.698Z,14.81
2018-05-07T01:49:57.291Z,14.77
2018-05-07T01:52:24.904Z,14.73
2018-05-07T01:54:52.504Z,14.74
2018-05-07T01:57:20.318Z,14.67
2018-05-07T01:59:47.918Z,14.66
2018-05-07T02:02:15.511Z,14.65
2018-05-07T02:04:43.121Z,14.66
2018-05-07T02:07:10.719Z,14.58
2018-05-07T02:09:38.343Z,14.48
2018-05-07T02:12:05.941Z,14.54
2018-05-07T02:14:33.599Z,14.44
2018-05-07T02:17:01.185Z,14.40
2018-05-07T02:19:28.775Z,14.42
2018-05-07T02:21:56.386Z,14.47
2018-05-07T02:24:23.970Z,14.45
2018-05-07T02:26:51.583Z,14.42
2018-05-07T02:29:19.171Z,14.36
2018-05-07T02:31:47.106Z,14.34
2018-05-07T02:34:15.203Z,14.32
2018-05-07T02:36:42.799Z,14.31
2018-05-07T02:39:10.422Z,14.22
2018-05-07T02:41:38.013Z,14.22
2018-05-07T02:44:05.631Z,14.09
2018-05-07T02:46:33.225Z,14.05
2018-05-07T02:49:01.029Z,14.07
2018-05-07T02:51:28.623Z,14.08
2018-05-07T02:53:56.216Z,14.04
2018-05-07T02:56:23.825Z,13.97
2018-05-07T02:58:51.424Z,13.95
2018-05-07T03:01:19.049Z,13.86
2018-05-07T03:03:46.653Z,13.76
2018-05-07T03:06:14.285Z,13.74
2018-05-07T03:08:41.905Z,13.73
2018-05-07T03:11:09.505Z,13.72
2018-05-07T03:13:37.123Z,13.72
2018-05-07T03:16:04.710Z,13.66
2018-05-07T03:18:32.326Z,13.71
2018-05-07T03:20:59.920Z,13.71
2018-05-07T03:23:27.769Z,13.68
2018-05-07T03:25:55.319Z,13.71
2018-05-07T03:28:22.994Z,13.66
2018-05-07T03:30:50.608Z,13.65
2018-05-07T03:33:18.202Z,13.66
2018-05-07T03:35:45.830Z,13.61
2018-05-07T03:38:13.430Z,13.69
2018-05-07T03:40:41.057Z,13.71
2018-05-07T03:43:08.654Z,13.70
2018-05-07T03:45:36.243Z,13.63
2018-05-07T03:48:03.863Z,13.63
2018-05-07T03:50:31.458Z,13.65
2018-05-07T03:52:59.114Z,13.71
2018-05-07T03:55:26.718Z,13.69
2018-05-07T03:57:54.726Z,13.62
2018-05-07T04:00:22.317Z,13.61
2018-05-07T04:02:49.903Z,13.52
2018-05-07T04:05:19.346Z,13.64
2018-05-07T04:07:46.930Z,13.62
2018-05-07T04:10:14.548Z,13.59
2018-05-07T04:12:42.140Z,13.61
2018-05-07T04:15:09.768Z,13.56
2018-05-07T04:17:49.075Z,13.57
2018-05-07T04:20:28.571Z,13.65
2018-05-07T04:23:07.961Z,13.68
2018-05-07T04:25:36.170Z,13.68
2018-05-07T04:28:03.700Z,13.72
2018-05-07T04:30:31.291Z,13.68
2018-05-07T04:32:58.916Z,13.74
2018-05-07T04:35:26.509Z,13.73
2018-05-07T04:37:54.142Z,13.73
2018-05-07T04:40:21.797Z,13.72
2018-05-07T04:42:49.763Z,13.72
2018-05-07T04:45:17.350Z,13.80
2018-05-07T04:47:44.946Z,13.85
2018-05-07T04:50:12.558Z,13.91
2018-05-07T04:52:40.154Z,13.94
2018-05-07T04:55:08.423Z,14.00
2018-05-07T04:57:36.007Z,14.04
2018-05-07T05:00:03.814Z,14.09
2018-05-07T05:02:31.411Z,14.04
2018-05-07T05:04:59.008Z,14.02
2018-05-07T05:07:26.631Z,14.14
2018-05-07T05:09:54.235Z,14.19
2018-05-07T05:12:21.852Z,14.28
2018-05-07T05:14:49.477Z,14.36
2018-05-07T05:17:17.249Z,14.36
2018-05-07T05:19:44.833Z,14.57
2018-05-07T05:22:12.431Z,14.53
2018-05-07T05:24:40.047Z,14.58
2018-05-07T05:27:07.643Z,14.57
2018-05-07T05:29:35.491Z,14.66
2018-05-07T05:32:03.074Z,14.70
2018-05-07T05:34:30.891Z,14.75
2018-05-07T05:36:58.481Z,14.89
2018-05-07T05:39:26.158Z,14.98
2018-05-07T05:41:53.778Z,15.05
2018-05-07T05:44:21.377Z,14.99
2018-05-07T05:46:48.991Z,15.11
2018-05-07T05:49:16.575Z,15.16
2018-05-07T05:51:44.239Z,15.23
2018-05-07T05:54:11.849Z,15.37
2018-05-07T05:56:39.438Z,15.42
2018-05-07T05:59:07.058Z,15.50
2018-05-07T06:01:34.648Z,15.53
2018-05-07T06:04:02.297Z,15.66
2018-05-07T06:06:29.903Z,15.88
2018-05-07T06:08:57.904Z,15.89
2018-05-07T06:11:25.515Z,15.96
2018-05-07T06:13:53.108Z,16.04
2018-05-07T06:16:20.722Z,16.08
2018-05-07T06:18:48.506Z,16.15
2018-05-07T06:21:16.259Z,16.22
2018-05-07T06:23:43.843Z,16.48
2018-05-07T06:26:11.787Z,16.51
2018-05-07T06:28:39.521Z,16.58
2018-05-07T06:31:07.122Z,16.66
2018-05-07T06:33:34.774Z,16.81
2018-05-07T06:36:03.191Z,16.87
2018-05-07T06:38:30.830Z,16.90
2018-05-07T06:40:58.447Z,16.98
2018-05-07T06:43:26.265Z,16.98
2018-05-07T06:45:53.888Z,16.95
2018-05-07T06:48:21.476Z,17.05
2018-05-07T06:50:49.087Z,17.11
2018-05-07T06:53:16.963Z,17.11
2018-05-07T06:55:44.575Z,17.15
2018-05-07T06:58:12.177Z,17.20
2018-05-07T07:00:39.824Z,17.14
2018-05-07T07:03:07.410Z,17.30
2018-05-07T07:05:34.997Z,17.40
2018-05-07T07:08:02.695Z,17.44
2018-05-07T07:10:30.246Z,17.57
2018-05-07T07:12:57.872Z,17.63
2018-05-07T07:15:25.464Z,17.71
2018-05-07T07:17:53.062Z,17.80
2018-05-07T07:20:20.671Z,17.92
2018-05-07T07:22:48.272Z,18.08
2018-05-07T07:25:16.198Z,18.34
2018-05-07T07:27:43.787Z,18.41
2018-05-07T07:30:11.388Z,18.48
2018-05-07T07:32:39.010Z,18.45
2018-05-07T07:35:06.613Z,18.54
2018-05-07T07:37:34.230Z,18.65
2018-05-07T07:40:01.843Z,18.71
2018-05-07T07:42:29.635Z,18.87
2018-05-07T07:44:57.238Z,18.97
2018-05-07T07:47:24.884Z,18.89
2018-05-07T07:49:52.498Z,19.09
2018-05-07T07:52:20.098Z,19.24
2018-05-07T07:54:47.705Z,19.30
2018-05-07T07:57:15.298Z,19.35
2018-05-07T07:59:42.914Z,19.46
2018-05-07T08:02:10.499Z,19.45
2018-05-07T08:04:38.129Z,19.37
2018-05-07T08:07:05.759Z,19.49
2018-05-07T08:09:33.345Z,19.60
2018-05-07T08:12:00.990Z,19.82
2018-05-07T08:14:28.561Z,19.93
2018-05-07T08:16:56.198Z,19.98
2018-05-07T08:19:23.838Z,20.04
2018-05-07T08:21:51.436Z,20.01
2018-05-07T08:24:19.086Z,20.19
2018-05-07T08:26:46.979Z,20.20
2018-05-07T08:29:14.581Z,20.32
2018-05-07T08:31:42.162Z,20.36
2018-05-07T08:34:09.841Z,20.38
2018-05-07T08:36:37.447Z,20.41
2018-05-07T08:39:05.949Z,20.43
2018-05-07T08:41:33.900Z,20.44
2018-05-07T08:44:01.502Z,20.58
2018-05-07T08:46:29.113Z,20.59
2018-05-07T08:48:56.858Z,20.52
2018-05-07T08:51:24.446Z,20.60
2018-05-07T08:53:52.120Z,20.77
2018-05-07T08:56:19.702Z,20.75
2018-05-07T08:58:47.582Z,20.72
2018-05-07T09:01:15.167Z,20.91
2018-05-07T09:03:42.804Z,20.92
2018-05-07T09:06:10.422Z,20.96
2018-05-07T09:08:38.070Z,20.81
2018-05-07T09:11:05.670Z,21.03
2018-05-07T09:13:33.262Z,20.94
2018-05-07T09:16:01.136Z,21.11
2018-05-07T09:18:28.722Z,21.16
2018-05-07T09:20:56.310Z,21.08
2018-05-07T09:23:23.930Z,21.19
2018-05-07T09:25:51.516Z,21.29
2018-05-07T09:28:19.133Z,21.40
2018-05-07T09:30:46.717Z,21.46
2018-05-07T09:33:14.328Z,21.40
2018-05-07T09:35:41.910Z,21.59
2018-05-07T09:38:09.513Z,21.65
2018-05-07T09:40:37.119Z,21.69
2018-05-07T09:43:04.759Z,21.79
2018-05-07T09:45:32.471Z,21.79
2018-05-07T09:48:00.112Z,21.99
2018-05-07T09:50:27.901Z,22.02
2018-05-07T09:52:55.759Z,22.07
2018-05-07T09:55:23.351Z,22.15
2018-05-07T09:58:02.713Z,22.10
2018-05-07T10:00:36.029Z,22.29
2018-05-07T10:03:03.652Z,22.43
2018-05-07T10:05:31.250Z,22.56
2018-05-07T10:07:59.150Z,22.48
2018-05-07T10:10:29.589Z,22.57
2018-05-07T10:12:57.211Z,22.57
2018-05-07T10:15:24.830Z,22.65
2018-05-07T10:17:52.425Z,22.63
2018-05-07T10:20:20.104Z,22.54
2018-05-07T10:22:47.696Z,22.55
2018-05-07T10:25:15.647Z,22.63
2018-05-07T10:27:43.235Z,22.69
2018-05-07T10:30:10.816Z,22.64
2018-05-07T10:32:38.426Z,22.56
2018-05-07T10:35:06.450Z,22.42
2018-05-07T10:37:34.055Z,22.32
2018-05-07T10:40:01.755Z,22.42
2018-05-07T10:42:29.548Z,22.42
2018-05-07T10:44:57.149Z,22.36
2018-05-07T10:47:24.828Z,22.55
2018-05-07T10:49:52.458Z,22.64
2018-05-07T10:52:20.049Z,22.81
2018-05-07T10:54:47.671Z,22.88
2018-05-07T10:57:15.263Z,23.08
2018-05-07T10:59:42.986Z,23.03
2018-05-07T11:02:10.594Z,23.05
2018-05-07T11:04:38.182Z,23.15
2018-05-07T11:07:05.799Z,23.21
2018-05-07T11:09:33.393Z,23.21
2018-05-07T11:12:01.024Z,23.27
2018-05-07T11:14:28.823Z,23.37
2018-05-07T11:16:56.482Z,23.17
2018-05-07T11:19:24.079Z,23.39
2018-05-07T11:21:51.700Z,23.25
2018-05-07T11:24:19.340Z,23.59
2018-05-07T11:26:47.020Z,23.69
2018-05-07T11:29:14.626Z,23.76
2018-05-07T11:31:42.273Z,23.75
2018-05-07T11:34:09.890Z,23.78
2018-05-07T11:36:37.580Z,23.92
2018-05-07T11:39:06.063Z,23.98
2018-05-07T11:41:33.666Z,23.97
2018-05-07T11:44:01.481Z,24.16
2018-05-07T11:46:29.101Z,24.31
2018-05-07T11:48:56.750Z,24.37
2018-05-07T11:51:24.403Z,24.66
2018-05-07T11:53:52.046Z,24.95
2018-05-07T11:56:19.638Z,24.93
2018-05-07T11:58:47.429Z,25.02
2018-05-07T12:01:15.225Z,25.21
2018-05-07T12:03:42.869Z,25.62
2018-05-07T12:06:10.531Z,25.95
2018-05-07T12:08:38.142Z,25.75
2018-05-07T12:11:06.086Z,26.05
2018-05-07T12:13:33.697Z,26.20
2018-05-07T12:16:01.342Z,26.29
2018-05-07T12:18:29.058Z,26.39
2018-05-07T12:20:56.699Z,26.24
2018-05-07T12:23:24.322Z,26.03
2018-05-07T12:25:52.075Z,26.16
2018-05-07T12:28:19.707Z,25.98
2018-05-07T12:30:47.303Z,26.02
2018-05-07T12:33:14.916Z,25.90
2018-05-07T12:35:42.597Z,25.84
2018-05-07T12:38:10.265Z,25.84
2018-05-07T12:40:37.868Z,25.90
2018-05-07T12:43:05.496Z,25.76
2018-05-07T12:45:33.105Z,25.93
2018-05-07T12:48:00.707Z,26.11
2018-05-07T12:50:28.322Z,26.16
2018-05-07T12:52:55.948Z,26.55
2018-05-07T12:55:23.556Z,26.94
2018-05-07T12:57:51.178Z,27.62
2018-05-07T13:00:18.807Z,28.60
2018-05-07T13:02:46.404Z,29.26
2018-05-07T13:05:14.030Z,29.83
2018-05-07T13:07:41.643Z,30.90
2018-05-07T13:10:09.269Z,31.58
2018-05-07T13:12:36.989Z,32.61
2018-05-07T13:15:04.893Z,33.19
2018-05-07T13:17:32.500Z,33.29
2018-05-07T13:20:00.092Z,33.71
2018-05-07T13:22:27.712Z,32.92
2018-05-07T13:24:55.402Z,33.08
2018-05-07T13:27:22.998Z,33.47
2018-05-07T13:29:50.590Z,32.75
2018-05-07T13:32:18.212Z,33.99
2018-05-07T13:34:45.803Z,33.12
2018-05-07T13:37:13.424Z,33.94
2018-05-07T13:39:41.022Z,34.82
2018-05-07T13:42:08.630Z,35.18
2018-05-07T13:44:36.216Z,35.19
2018-05-07T13:47:03.835Z,34.53
2018-05-07T13:49:31.423Z,34.15
2018-05-07T13:51:59.057Z,34.92
2018-05-07T13:54:26.752Z,35.30
2018-05-07T13:56:54.432Z,33.95
2018-05-07T13:59:22.004Z,33.06
2018-05-07T14:01:49.686Z,32.49
2018-05-07T14:04:17.341Z,31.52
2018-05-07T14:06:44.937Z,30.55
2018-05-07T14:09:12.548Z,29.72
2018-05-07T14:11:40.135Z,28.91
2018-05-07T14:14:07.991Z,28.43
2018-05-07T14:16:35.578Z,28.08
2018-05-07T14:19:03.195Z,27.45
2018-05-07T14:21:30.866Z,27.04
2018-05-07T14:23:58.462Z,26.89
2018-05-07T14:26:26.085Z,26.63
2018-05-07T14:28:53.679Z,26.41
2018-05-07T14:31:21.303Z,26.32
2018-05-07T14:33:48.888Z,26.24
2018-05-07T14:36:16.516Z,26.20
2018-05-07T14:38:44.135Z,26.19
2018-05-07T14:41:11.770Z,26.17
2018-05-07T14:43:39.487Z,26.14
2018-05-07T14:46:07.128Z,25.92
2018-05-07T14:48:34.744Z,25.92
2018-05-07T14:51:02.361Z,25.78
2018-05-07T14:53:29.964Z,25.84
2018-05-07T14:55:57.591Z,25.79
2018-05-07T14:58:25.183Z,25.75
2018-05-07T15:00:52.785Z,25.79
2018-05-07T15:03:20.370Z,25.86
2018-05-07T15:05:47.975Z,26.03
2018-05-07T15:08:15.569Z,25.93
2018-05-07T15:10:43.186Z,25.92
2018-05-07T15:13:10.798Z,25.85
2018-05-07T15:15:38.738Z,25.79
2018-05-07T15:18:06.332Z,25.75
2018-05-07T15:20:33.943Z,25.78
2018-05-07T15:23:01.535Z,25.86
2018-05-07T15:25:29.166Z,25.88
2018-05-07T15:27:56.768Z,25.93
2018-05-07T15:30:24.377Z,25.87
2018-05-07T15:32:52.100Z,25.88
2018-05-07T15:35:19.694Z,25.87
2018-05-07T15:37:47.311Z,25.77
2018-05-07T15:40:14.903Z,25.74
2018-05-07T15:42:42.507Z,25.70
2018-05-07T15:45:10.093Z,25.72
2018-05-07T15:47:38.138Z,25.70
2018-05-07T15:50:05.721Z,25.71
2018-05-07T15:52:33.306Z,25.64
2018-05-07T15:55:00.927Z,25.65
2018-05-07T15:57:28.518Z,25.59
2018-05-07T15:59:56.132Z,25.60
2018-05-07T16:02:23.726Z,25.59
2018-05-07T16:04:51.370Z,25.53
2018-05-07T16:07:18.976Z,25.49
2018-05-07T16:09:46.583Z,25.42
2018-05-07T16:12:14.229Z,25.51
2018-05-07T16:14:41.817Z,25.54
2018-05-07T16:17:09.436Z,25.47
2018-05-07T16:19:37.046Z,25.42
2018-05-07T16:22:04.751Z,25.43
2018-05-07T16:24:32.274Z,25.41
2018-05-07T16:26:59.913Z,25.41
2018-05-07T16:29:27.531Z,25.49
2018-05-07T16:31:55.244Z,25.44
2018-05-07T16:34:22.830Z,25.43
2018-05-07T16:36:50.443Z,25.29
2018-05-07T16:39:18.104Z,25.29
2018-05-07T16:41:45.701Z,25.26
2018-05-07T16:44:13.317Z,25.22
2018-05-07T16:46:40.912Z,25.16
2018-05-07T16:49:08.721Z,25.10
2018-05-07T16:51:36.304Z,25.08
2018-05-07T16:54:03.915Z,25.11
2018-05-07T16:56:31.585Z,25.03
2018-05-07T16:58:59.808Z,25.13
2018-05-07T17:01:27.418Z,25.16
2018-05-07T17:03:55.004Z,25.24
2018-05-07T17:06:22.612Z,25.32
2018-05-07T17:08:50.203Z,25.33
2018-05-07T17:11:17.952Z,25.37
2018-05-07T17:13:45.551Z,25.58
2018-05-07T17:16:13.142Z,25.81
2018-05-07T17:18:40.750Z,26.15
2018-05-07T17:21:08.343Z,26.78
2018-05-07T17:23:36.003Z,27.19
2018-05-07T17:26:03.595Z,27.71
2018-05-07T17:28:31.634Z,27.39
2018-05-07T17:30:59.224Z,27.30
2018-05-07T17:33:26.845Z,26.54
2018-05-07T17:35:54.445Z,26.54
2018-05-07T17:38:22.069Z,26.15
2018-05-07T17:40:49.683Z,25.67
2018-05-07T17:43:17.277Z,25.67
2018-05-07T17:46:00.368Z,25.68
2018-05-07T17:48:39.719Z,25.68
2018-05-07T17:51:07.788Z,25.44
2018-05-07T17:53:35.413Z,25.26
2018-05-07T17:56:03.673Z,25.08
2018-05-07T17:58:31.310Z,24.92
2018-05-07T18:00:58.917Z,24.71
2018-05-07T18:03:26.538Z,24.63
2018-05-07T18:05:54.122Z,24.39
2018-05-07T18:08:21.918Z,24.40
2018-05-07T18:10:49.580Z,24.26
2018-05-07T18:13:17.131Z,24.14
2018-05-07T18:15:44.784Z,24.02
2018-05-07T18:18:12.379Z,23.94
2018-05-07T18:20:40.470Z,23.77
2018-05-07T18:23:08.060Z,23.62
2018-05-07T18:25:35.651Z,23.53
2018-05-07T18:28:03.254Z,23.43
2018-05-07T18:30:31.050Z,23.31
2018-05-07T18:32:58.500Z,23.20
2018-05-07T18:35:26.091Z,23.13
2018-05-07T18:37:53.898Z,22.94
2018-05-07T18:40:21.547Z,22.86
2018-05-07T18:42:49.139Z,22.79
2018-05-07T18:45:16.884Z,22.73
2018-05-07T18:47:44.473Z,22.66
2018-05-07T18:50:12.099Z,22.59
2018-05-07T18:52:39.697Z,22.46
2018-05-07T18:55:07.505Z,22.38
2018-05-07T18:57:35.102Z,22.37
2018-05-07T19:00:02.702Z,22.27
2018-05-07T19:02:30.384Z,22.24
2018-05-07T19:04:57.976Z,22.14
2018-05-07T19:07:25.595Z,22.08
2018-05-07T19:09:53.183Z,22.01
2018-05-07T19:12:20.966Z,21.97
2018-05-07T19:14:48.552Z,21.91
2018-05-07T19:17:16.145Z,21.84
2018-05-07T19:19:43.783Z,21.76
2018-05-07T19:22:11.385Z,21.71
2018-05-07T19:24:39.379Z,21.73
2018-05-07T19:27:06.970Z,21.65
2018-05-07T19:29:34.567Z,21.58
2018-05-07T19:32:02.196Z,21.45
2018-05-07T19:34:29.795Z,21.38
2018-05-07T19:36:57.694Z,21.37
2018-05-07T19:39:25.286Z,21.36
2018-05-07T19:41:52.875Z,21.25
2018-05-07T19:44:20.494Z,21.19
2018-05-07T19:46:48.099Z,21.13
2018-05-07T19:49:15.735Z,21.14
2018-05-07T19:51:43.324Z,21.12
2018-05-07T19:54:11.053Z,21.08
2018-05-07T19:56:38.651Z,21.09
2018-05-07T19:59:06.428Z,20.97
2018-05-07T20:01:34.041Z,20.97
2018-05-07T20:04:01.664Z,20.89
2018-05-07T20:06:29.274Z,20.84
2018-05-07T20:08:56.858Z,20.81
2018-05-07T20:11:24.671Z,20.74
2018-05-07T20:13:52.269Z,20.61
2018-05-07T20:16:19.858Z,20.58
2018-05-07T20:18:47.474Z,20.52
2018-05-07T20:21:15.063Z,20.47
2018-05-07T20:23:42.679Z,20.40
2018-05-07T20:26:10.290Z,20.37
2018-05-07T20:28:38.102Z,20.37
2018-05-07T20:31:05.688Z,20.39
2018-05-07T20:33:33.290Z,20.33
2018-05-07T20:36:00.911Z,20.32
2018-05-07T20:38:28.504Z,20.31
2018-05-07T20:40:56.114Z,20.24
2018-05-07T20:43:23.707Z,20.27
2018-05-07T20:45:51.737Z,20.25
2018-05-07T20:48:19.346Z,20.17
2018-05-07T20:50:46.934Z,20.17
2018-05-07T20:53:14.564Z,20.15
2018-05-07T20:55:42.163Z,20.16
2018-05-07T20:58:09.774Z,20.13
2018-05-07T21:00:38.203Z,20.10
2018-05-07T21:03:05.840Z,20.09
2018-05-07T21:05:33.426Z,19.98
2018-05-07T21:08:01.168Z,20.02
2018-05-07T21:10:28.896Z,20.05
2018-05-07T21:12:56.675Z,19.99
2018-05-07T21:15:24.297Z,20.05
2018-05-07T21:17:51.896Z,20.03
2018-05-07T21:20:19.519Z,19.97
2018-05-07T21:22:47.127Z,19.89
2018-05-07T21:25:14.735Z,19.90
2018-05-07T21:27:42.352Z,19.86
2018-05-07T21:30:09.938Z,19.88
2018-05-07T21:32:37.585Z,19.88
2018-05-07T21:35:05.183Z,19.85
2018-05-07T21:37:33.061Z,19.80
2018-05-07T21:40:00.652Z,19.76
2018-05-07T21:42:28.239Z,19.75
2018-05-07T21:44:55.886Z,19.73
2018-05-07T21:47:23.503Z,19.74
2018-05-07T21:49:51.118Z,19.66
2018-05-07T21:52:18.715Z,19.62
2018-05-07T21:54:46.701Z,19.59
2018-05-07T21:57:14.293Z,19.57
2018-05-07T21:59:41.879Z,19.56
2018-05-07T22:02:09.505Z,19.53
2018-05-07T22:04:37.111Z,19.57
2018-05-07T22:07:04.729Z,19.50
2018-05-07T22:09:32.319Z,19.51
2018-05-07T22:11:59.940Z,19.43
2018-05-07T22:14:27.547Z,19.39
2018-05-07T22:16:55.156Z,19.33
2018-05-07T22:19:22.823Z,19.30
2018-05-07T22:21:50.413Z,19.25
2018-05-07T22:24:18.028Z,19.19
2018-05-07T22:26:45.615Z,19.11
2018-05-07T22:29:13.241Z,19.08
2018-05-07T22:31:40.838Z,19.06
2018-05-07T22:34:08.426Z,19.04
2018-05-07T22:36:36.038Z,19.03
2018-05-07T22:39:03.697Z,18.94
2018-05-07T22:41:31.285Z,18.92
2018-05-07T22:43:58.883Z,18.93
2018-05-07T22:46:26.689Z,18.92
2018-05-07T22:48:54.283Z,18.86
2018-05-07T22:51:21.890Z,18.75
2018-05-07T22:53:49.517Z,18.59
2018-05-07T22:56:17.103Z,18.63
2018-05-07T22:58:44.710Z,18.61
2018-05-07T23:01:12.298Z,18.56
2018-05-07T23:03:40.419Z,18.46
2018-05-07T23:06:07.966Z,18.38
2018-05-07T23:08:35.560Z,18.41
2018-05-07T23:11:03.188Z,18.27
2018-05-07T23:13:30.788Z,18.19
2018-05-07T23:15:58.638Z,18.18
2018-05-07T23:18:26.241Z,18.24
2018-05-07T23:20:53.841Z,18.11
2018-05-07T23:23:21.462Z,18.07
2018-05-07T23:25:49.066Z,18.10
2018-05-07T23:28:16.696Z,18.09
2018-05-07T23:30:44.285Z,18.03
2018-05-07T23:33:11.909Z,18.00
2018-05-07T23:35:39.505Z,17.94
2018-05-07T23:38:07.265Z,17.89
2018-05-07T23:40:34.860Z,17.79
2018-05-07T23:43:02.446Z,17.79
2018-05-07T23:45:30.060Z,17.81
2018-05-07T23:47:57.665Z,17.79
2018-05-07T23:50:25.274Z,17.76
2018-05-07T23:52:52.868Z,17.73
2018-05-07T23:55:20.510Z,17.70
2018-05-07T23:57:48.105Z,17.65
